Rising Eagle — J8B4538 — position and weather

sailwx.info

Track history (hours):
 
Tides and Currents Weather Stations Pressure Air Temp Water Temp Dewpoint Dewpoint Depression Visibility Wind Speed Wind Dir Waves Ship Positions

Rising Eagle

Last reported at 2014-Jul-13 07:25 UTC. Time now 2014-Jul-24 08:26 UTC.
Position N 34°04' E 033°57'.
Warning: this ship's position is 11 days out of date.

Length 167 m; draft 10.1 m.

Type: Cargo ship. MMSI: 376369000.

Date/timePositionNaut miles runAvg speedWind from/ knotsBaromVisibWave heightAir tempDewpointWater temp
2014-Jul-13 07:25N 34°04' E 033°57'6911.7
2014-Jul-13 01:33N 33°01' E 033°26'1212.0
2014-Jul-13 00:33N 32°50' E 033°19'1612.1
2014-Jul-12 23:15N 32°36' E 033°12'1312.0
2014-Jul-12 22:09N 32°24' E 033°05'1211.9
2014-Jul-12 21:11N 32°13' E 032°60'811.5
2014-Jul-12 20:29N 32°06' E 032°56'1211.6
2014-Jul-12 19:30N 31°56' E 032°50'1111.5
2014-Jul-12 18:33N 31°46' E 032°44'1212.1
2014-Jul-12 17:33N 31°40' E 032°32'11 9.9
2014-Jul-12 16:28N 31°31' E 032°24'1010.9
2014-Jul-12 15:33N 31°21' E 032°23'12 9.6
2014-Jul-12 14:17N 31°09' E 032°19'7 9.4
2014-Jul-12 13:31N 31°02' E 032°19'9 9.4
2014-Jul-12 12:32N 30°53' E 032°19'  
Track history (hours):
 
Tides and Currents Weather Stations Pressure Air Temp Water Temp Dewpoint Dewpoint Depression Visibility Wind Speed Wind Dir Waves Ship Positions

Rising Eagle

Last reported at 2014-Jul-13 07:25 UTC. Time now 2014-Jul-24 08:26 UTC.
Position N 34°04' E 033°57'.
Warning: this ship's position is 11 days out of date.

Length 167 m; draft 10.1 m.

Type: Cargo ship. MMSI: 376369000.

Date/timePositionNaut miles runAvg speedWind from/ knotsBaromVisibWave heightAir tempDewpointWater temp
2014-Jul-13 07:25N 34°04' E 033°57'6911.7
2014-Jul-13 01:33N 33°01' E 033°26'1212.0
2014-Jul-13 00:33N 32°50' E 033°19'1612.1
2014-Jul-12 23:15N 32°36' E 033°12'1312.0
2014-Jul-12 22:09N 32°24' E 033°05'1211.9
2014-Jul-12 21:11N 32°13' E 032°60'811.5
2014-Jul-12 20:29N 32°06' E 032°56'1211.6
2014-Jul-12 19:30N 31°56' E 032°50'1111.5
2014-Jul-12 18:33N 31°46' E 032°44'1212.1
2014-Jul-12 17:33N 31°40' E 032°32'11 9.9
2014-Jul-12 16:28N 31°31' E 032°24'1010.9
2014-Jul-12 15:33N 31°21' E 032°23'12 9.6
2014-Jul-12 14:17N 31°09' E 032°19'7 9.4
2014-Jul-12 13:31N 31°02' E 032°19'9 9.4
2014-Jul-12 12:32N 30°53' E 032°19'  

Dump ship's entire track history